sensor_id;sensor_type;location;lat;lon;timestamp;P1;durP1;ratioP1;P2;durP2;ratioP2
18172;SDS011;9211;48.818;9.312;2024-01-06T00:01:10;14.07;;;6.88;;
18172;SDS011;9211;48.818;9.312;2024-01-06T00:03:38;15.03;;;6.90;;
18172;SDS011;9211;48.818;9.312;2024-01-06T00:06:05;15.05;;;6.90;;
18172;SDS011;9211;48.818;9.312;2024-01-06T00:08:32;15.30;;;6.80;;
18172;SDS011;9211;48.818;9.312;2024-01-06T00:10:59;13.60;;;6.88;;
18172;SDS011;9211;48.818;9.312;2024-01-06T00:13:28;15.88;;;7.15;;
18172;SDS011;9211;48.818;9.312;2024-01-06T00:15:56;17.77;;;6.88;;
18172;SDS011;9211;48.818;9.312;2024-01-06T00:18:23;13.50;;;6.80;;
18172;SDS011;9211;48.818;9.312;2024-01-06T00:20:50;11.88;;;6.47;;
18172;SDS011;9211;48.818;9.312;2024-01-06T00:23:17;11.63;;;5.85;;
18172;SDS011;9211;48.818;9.312;2024-01-06T00:25:44;12.05;;;5.63;;
18172;SDS011;9211;48.818;9.312;2024-01-06T00:28:11;12.10;;;5.53;;
18172;SDS011;9211;48.818;9.312;2024-01-06T00:30:38;13.18;;;5.80;;
18172;SDS011;9211;48.818;9.312;2024-01-06T00:33:06;10.95;;;5.43;;
18172;SDS011;9211;48.818;9.312;2024-01-06T00:35:33;9.80;;;5.90;;
18172;SDS011;9211;48.818;9.312;2024-01-06T00:38:00;12.88;;;5.88;;
18172;SDS011;9211;48.818;9.312;2024-01-06T00:40:27;12.30;;;6.00;;
18172;SDS011;9211;48.818;9.312;2024-01-06T00:42:54;10.05;;;5.30;;
18172;SDS011;9211;48.818;9.312;2024-01-06T00:45:21;9.60;;;4.40;;
18172;SDS011;9211;48.818;9.312;2024-01-06T00:47:48;10.07;;;5.10;;
18172;SDS011;9211;48.818;9.312;2024-01-06T00:50:17;11.23;;;5.10;;
18172;SDS011;9211;48.818;9.312;2024-01-06T00:52:44;11.27;;;5.10;;
18172;SDS011;9211;48.818;9.312;2024-01-06T00:55:11;9.23;;;5.17;;
18172;SDS011;9211;48.818;9.312;2024-01-06T00:57:38;10.70;;;5.10;;
18172;SDS011;9211;48.818;9.312;2024-01-06T01:00:06;10.75;;;4.90;;
18172;SDS011;9211;48.818;9.312;2024-01-06T01:02:33;11.37;;;5.00;;
18172;SDS011;9211;48.818;9.312;2024-01-06T01:05:00;10.70;;;5.17;;
18172;SDS011;9211;48.818;9.312;2024-01-06T01:07:28;9.40;;;4.90;;
18172;SDS011;9211;48.818;9.312;2024-01-06T01:09:56;10.63;;;4.97;;
18172;SDS011;9211;48.818;9.312;2024-01-06T01:12:23;10.38;;;4.85;;
18172;SDS011;9211;48.818;9.312;2024-01-06T01:14:50;8.32;;;4.13;;
18172;SDS011;9211;48.818;9.312;2024-01-06T01:17:17;8.98;;;3.90;;
18172;SDS011;9211;48.818;9.312;2024-01-06T01:19:44;6.72;;;3.42;;
18172;SDS011;9211;48.818;9.312;2024-01-06T01:22:12;7.38;;;2.70;;
18172;SDS011;9211;48.818;9.312;2024-01-06T01:24:40;7.80;;;2.70;;
18172;SDS011;9211;48.818;9.312;2024-01-06T01:27:08;9.68;;;2.70;;
18172;SDS011;9211;48.818;9.312;2024-01-06T01:29:35;7.28;;;2.70;;
18172;SDS011;9211;48.818;9.312;2024-01-06T01:32:02;8.82;;;2.70;;
18172;SDS011;9211;48.818;9.312;2024-01-06T01:34:29;5.87;;;2.70;;
18172;SDS011;9211;48.818;9.312;2024-01-06T01:36:56;9.27;;;2.80;;
18172;SDS011;9211;48.818;9.312;2024-01-06T01:39:23;6.80;;;2.70;;
18172;SDS011;9211;48.818;9.312;2024-01-06T01:41:51;7.80;;;3.30;;
18172;SDS011;9211;48.818;9.312;2024-01-06T01:44:18;8.85;;;3.28;;
18172;SDS011;9211;48.818;9.312;2024-01-06T01:46:45;8.23;;;2.80;;
18172;SDS011;9211;48.818;9.312;2024-01-06T01:49:12;7.30;;;2.78;;
18172;SDS011;9211;48.818;9.312;2024-01-06T01:51:39;6.68;;;2.70;;
18172;SDS011;9211;48.818;9.312;2024-01-06T01:54:08;6.82;;;2.70;;
18172;SDS011;9211;48.818;9.312;2024-01-06T01:56:35;6.38;;;2.50;;
18172;SDS011;9211;48.818;9.312;2024-01-06T01:59:05;7.30;;;2.60;;
18172;SDS011;9211;48.818;9.312;2024-01-06T02:01:35;9.38;;;2.38;;
18172;SDS011;9211;48.818;9.312;2024-01-06T02:04:02;7.68;;;2.60;;
18172;SDS011;9211;48.818;9.312;2024-01-06T02:06:29;6.68;;;2.35;;
18172;SDS011;9211;48.818;9.312;2024-01-06T02:08:56;9.88;;;2.60;;
18172;SDS011;9211;48.818;9.312;2024-01-06T02:11:23;7.90;;;2.50;;
18172;SDS011;9211;48.818;9.312;2024-01-06T02:13:50;8.03;;;2.60;;
18172;SDS011;9211;48.818;9.312;2024-01-06T02:16:19;9.55;;;2.53;;
18172;SDS011;9211;48.818;9.312;2024-01-06T02:18:46;7.10;;;2.45;;
18172;SDS011;9211;48.818;9.312;2024-01-06T02:21:13;6.18;;;2.42;;
18172;SDS011;9211;48.818;9.312;2024-01-06T02:23:42;8.95;;;2.10;;
18172;SDS011;9211;48.818;9.312;2024-01-06T02:26:09;5.72;;;2.00;;
18172;SDS011;9211;48.818;9.312;2024-01-06T02:28:38;7.65;;;2.40;;
18172;SDS011;9211;48.818;9.312;2024-01-06T02:31:05;7.00;;;2.10;;
18172;SDS011;9211;48.818;9.312;2024-01-06T02:33:32;8.85;;;2.00;;
18172;SDS011;9211;48.818;9.312;2024-01-06T02:35:59;4.68;;;1.52;;
18172;SDS011;9211;48.818;9.312;2024-01-06T02:38:25;8.00;;;2.25;;
18172;SDS011;9211;48.818;9.312;2024-01-06T02:40:54;7.82;;;2.00;;
18172;SDS011;9211;48.818;9.312;2024-01-06T02:43:21;6.50;;;2.00;;
18172;SDS011;9211;48.818;9.312;2024-01-06T02:45:48;6.88;;;2.00;;
18172;SDS011;9211;48.818;9.312;2024-01-06T02:48:15;7.38;;;1.92;;
18172;SDS011;9211;48.818;9.312;2024-01-06T02:50:42;7.45;;;2.08;;
18172;SDS011;9211;48.818;9.312;2024-01-06T02:53:09;5.57;;;1.80;;
18172;SDS011;9211;48.818;9.312;2024-01-06T02:55:37;5.35;;;2.10;;
18172;SDS011;9211;48.818;9.312;2024-01-06T02:58:06;5.78;;;1.70;;
18172;SDS011;9211;48.818;9.312;2024-01-06T03:03:15;5.82;;;1.70;;
18172;SDS011;9211;48.818;9.312;2024-01-06T03:05:41;6.72;;;1.75;;
18172;SDS011;9211;48.818;9.312;2024-01-06T03:08:08;7.05;;;1.90;;
18172;SDS011;9211;48.818;9.312;2024-01-06T03:10:35;7.05;;;1.73;;
18172;SDS011;9211;48.818;9.312;2024-01-06T03:13:03;6.35;;;1.65;;
18172;SDS011;9211;48.818;9.312;2024-01-06T03:15:31;6.55;;;1.77;;
18172;SDS011;9211;48.818;9.312;2024-01-06T03:17:58;4.53;;;1.40;;
18172;SDS011;9211;48.818;9.312;2024-01-06T03:20:25;7.15;;;1.63;;
18172;SDS011;9211;48.818;9.312;2024-01-06T03:22:52;5.88;;;1.35;;
18172;SDS011;9211;48.818;9.312;2024-01-06T03:25:19;7.30;;;1.83;;
18172;SDS011;9211;48.818;9.312;2024-01-06T03:27:46;7.15;;;1.67;;
18172;SDS011;9211;48.818;9.312;2024-01-06T03:30:13;6.80;;;1.60;;
18172;SDS011;9211;48.818;9.312;2024-01-06T03:32:41;6.70;;;1.55;;
18172;SDS011;9211;48.818;9.312;2024-01-06T03:35:08;5.00;;;1.40;;
18172;SDS011;9211;48.818;9.312;2024-01-06T03:37:35;6.20;;;1.30;;
18172;SDS011;9211;48.818;9.312;2024-01-06T03:40:02;7.82;;;1.60;;
18172;SDS011;9211;48.818;9.312;2024-01-06T03:42:29;6.78;;;1.40;;
18172;SDS011;9211;48.818;9.312;2024-01-06T03:44:56;5.68;;;1.50;;
18172;SDS011;9211;48.818;9.312;2024-01-06T03:47:23;7.82;;;1.50;;
18172;SDS011;9211;48.818;9.312;2024-01-06T03:49:51;6.05;;;1.60;;
18172;SDS011;9211;48.818;9.312;2024-01-06T03:52:18;5.70;;;1.40;;
18172;SDS011;9211;48.818;9.312;2024-01-06T03:54:45;7.57;;;1.60;;
18172;SDS011;9211;48.818;9.312;2024-01-06T03:57:12;6.25;;;1.45;;
18172;SDS011;9211;48.818;9.312;2024-01-06T03:59:39;5.47;;;1.35;;
18172;SDS011;9211;48.818;9.312;2024-01-06T04:02:06;6.18;;;1.42;;
18172;SDS011;9211;48.818;9.312;2024-01-06T04:04:32;8.63;;;1.48;;
18172;SDS011;9211;48.818;9.312;2024-01-06T04:07:01;7.82;;;1.58;;
18172;SDS011;9211;48.818;9.312;2024-01-06T04:09:28;9.20;;;1.50;;
18172;SDS011;9211;48.818;9.312;2024-01-06T04:11:54;5.82;;;1.52;;
18172;SDS011;9211;48.818;9.312;2024-01-06T04:14:21;4.65;;;1.42;;
18172;SDS011;9211;48.818;9.312;2024-01-06T04:16:48;8.18;;;1.60;;
18172;SDS011;9211;48.818;9.312;2024-01-06T04:19:16;6.35;;;1.50;;
18172;SDS011;9211;48.818;9.312;2024-01-06T04:21:43;7.88;;;1.55;;
18172;SDS011;9211;48.818;9.312;2024-01-06T04:24:11;5.68;;;1.50;;
18172;SDS011;9211;48.818;9.312;2024-01-06T04:26:38;6.93;;;1.55;;
18172;SDS011;9211;48.818;9.312;2024-01-06T04:29:05;6.47;;;1.60;;
18172;SDS011;9211;48.818;9.312;2024-01-06T04:31:33;7.80;;;1.55;;
18172;SDS011;9211;48.818;9.312;2024-01-06T04:34:00;4.95;;;1.60;;
18172;SDS011;9211;48.818;9.312;2024-01-06T04:36:28;8.80;;;1.70;;
18172;SDS011;9211;48.818;9.312;2024-01-06T04:38:55;5.83;;;1.60;;
18172;SDS011;9211;48.818;9.312;2024-01-06T04:41:23;5.13;;;1.40;;
18172;SDS011;9211;48.818;9.312;2024-01-06T04:43:50;7.13;;;1.55;;
18172;SDS011;9211;48.818;9.312;2024-01-06T04:46:17;6.80;;;1.50;;
18172;SDS011;9211;48.818;9.312;2024-01-06T04:48:44;8.00;;;1.70;;
18172;SDS011;9211;48.818;9.312;2024-01-06T04:51:11;4.77;;;1.50;;
18172;SDS011;9211;48.818;9.312;2024-01-06T04:53:39;7.68;;;1.45;;
18172;SDS011;9211;48.818;9.312;2024-01-06T04:56:06;5.93;;;1.60;;
18172;SDS011;9211;48.818;9.312;2024-01-06T04:58:34;6.73;;;1.80;;
18172;SDS011;9211;48.818;9.312;2024-01-06T05:01:01;7.68;;;1.83;;
18172;SDS011;9211;48.818;9.312;2024-01-06T05:03:29;7.97;;;1.60;;
18172;SDS011;9211;48.818;9.312;2024-01-06T05:05:56;7.28;;;1.60;;
18172;SDS011;9211;48.818;9.312;2024-01-06T05:08:23;5.35;;;1.60;;
18172;SDS011;9211;48.818;9.312;2024-01-06T05:10:51;7.13;;;1.92;;
18172;SDS011;9211;48.818;9.312;2024-01-06T05:13:19;6.03;;;1.50;;
18172;SDS011;9211;48.818;9.312;2024-01-06T05:15:47;6.47;;;1.70;;
18172;SDS011;9211;48.818;9.312;2024-01-06T05:18:14;9.18;;;1.60;;
18172;SDS011;9211;48.818;9.312;2024-01-06T05:20:42;5.28;;;1.60;;
18172;SDS011;9211;48.818;9.312;2024-01-06T05:23:09;6.07;;;1.67;;
18172;SDS011;9211;48.818;9.312;2024-01-06T05:25:36;6.03;;;1.70;;
18172;SDS011;9211;48.818;9.312;2024-01-06T05:28:03;6.88;;;1.73;;
18172;SDS011;9211;48.818;9.312;2024-01-06T05:30:30;6.25;;;1.70;;
18172;SDS011;9211;48.818;9.312;2024-01-06T05:32:58;6.97;;;1.88;;
18172;SDS011;9211;48.818;9.312;2024-01-06T05:35:25;6.28;;;1.92;;
18172;SDS011;9211;48.818;9.312;2024-01-06T05:37:52;6.32;;;1.60;;
18172;SDS011;9211;48.818;9.312;2024-01-06T05:40:19;6.20;;;1.70;;
18172;SDS011;9211;48.818;9.312;2024-01-06T05:42:46;5.27;;;1.63;;
18172;SDS011;9211;48.818;9.312;2024-01-06T05:45:13;8.20;;;1.73;;
18172;SDS011;9211;48.818;9.312;2024-01-06T05:47:40;5.87;;;2.00;;
18172;SDS011;9211;48.818;9.312;2024-01-06T05:50:09;7.87;;;1.77;;
18172;SDS011;9211;48.818;9.312;2024-01-06T05:52:36;6.47;;;1.70;;
18172;SDS011;9211;48.818;9.312;2024-01-06T05:55:03;5.97;;;1.73;;
18172;SDS011;9211;48.818;9.312;2024-01-06T05:57:31;6.32;;;1.60;;
18172;SDS011;9211;48.818;9.312;2024-01-06T05:59:58;6.50;;;1.52;;
18172;SDS011;9211;48.818;9.312;2024-01-06T06:02:26;5.05;;;1.58;;
18172;SDS011;9211;48.818;9.312;2024-01-06T06:04:53;6.97;;;1.90;;
18172;SDS011;9211;48.818;9.312;2024-01-06T06:07:21;7.32;;;1.88;;
18172;SDS011;9211;48.818;9.312;2024-01-06T06:09:48;8.75;;;1.80;;
18172;SDS011;9211;48.818;9.312;2024-01-06T06:12:15;10.73;;;2.40;;
18172;SDS011;9211;48.818;9.312;2024-01-06T06:14:42;8.67;;;1.67;;
18172;SDS011;9211;48.818;9.312;2024-01-06T06:17:09;6.20;;;1.67;;
18172;SDS011;9211;48.818;9.312;2024-01-06T06:19:36;5.20;;;1.50;;
18172;SDS011;9211;48.818;9.312;2024-01-06T06:22:03;4.97;;;1.70;;
18172;SDS011;9211;48.818;9.312;2024-01-06T06:24:31;5.10;;;1.48;;
18172;SDS011;9211;48.818;9.312;2024-01-06T06:26:58;6.57;;;1.70;;
18172;SDS011;9211;48.818;9.312;2024-01-06T06:29:25;5.15;;;1.50;;
18172;SDS011;9211;48.818;9.312;2024-01-06T06:31:54;6.35;;;1.65;;
18172;SDS011;9211;48.818;9.312;2024-01-06T06:34:20;7.88;;;1.55;;
18172;SDS011;9211;48.818;9.312;2024-01-06T06:36:48;6.40;;;1.70;;
18172;SDS011;9211;48.818;9.312;2024-01-06T06:39:15;6.57;;;2.00;;
18172;SDS011;9211;48.818;9.312;2024-01-06T06:41:44;7.05;;;2.15;;
18172;SDS011;9211;48.818;9.312;2024-01-06T06:44:11;5.27;;;1.70;;
18172;SDS011;9211;48.818;9.312;2024-01-06T06:46:38;5.13;;;1.63;;
18172;SDS011;9211;48.818;9.312;2024-01-06T06:49:05;6.70;;;1.88;;
18172;SDS011;9211;48.818;9.312;2024-01-06T06:51:32;7.75;;;1.90;;
18172;SDS011;9211;48.818;9.312;2024-01-06T06:53:59;6.75;;;2.95;;
18172;SDS011;9211;48.818;9.312;2024-01-06T06:56:26;6.40;;;2.30;;
18172;SDS011;9211;48.818;9.312;2024-01-06T06:58:56;7.82;;;2.08;;
18172;SDS011;9211;48.818;9.312;2024-01-06T07:01:23;5.97;;;1.90;;
18172;SDS011;9211;48.818;9.312;2024-01-06T07:03:50;3.75;;;2.00;;
18172;SDS011;9211;48.818;9.312;2024-01-06T07:06:17;6.40;;;2.03;;
18172;SDS011;9211;48.818;9.312;2024-01-06T07:08:44;7.75;;;2.10;;
18172;SDS011;9211;48.818;9.312;2024-01-06T07:11:11;5.28;;;1.92;;
18172;SDS011;9211;48.818;9.312;2024-01-06T07:13:40;6.53;;;2.13;;
18172;SDS011;9211;48.818;9.312;2024-01-06T07:16:08;5.93;;;2.20;;
18172;SDS011;9211;48.818;9.312;2024-01-06T07:18:36;6.68;;;2.20;;
18172;SDS011;9211;48.818;9.312;2024-01-06T07:21:04;7.72;;;2.50;;
18172;SDS011;9211;48.818;9.312;2024-01-06T07:23:33;6.28;;;2.50;;
18172;SDS011;9211;48.818;9.312;2024-01-06T07:26:00;8.13;;;2.38;;
18172;SDS011;9211;48.818;9.312;2024-01-06T07:28:27;7.20;;;2.33;;
18172;SDS011;9211;48.818;9.312;2024-01-06T07:30:54;10.13;;;2.83;;
18172;SDS011;9211;48.818;9.312;2024-01-06T07:33:23;7.10;;;2.70;;
18172;SDS011;9211;48.818;9.312;2024-01-06T07:35:51;7.95;;;2.47;;
18172;SDS011;9211;48.818;9.312;2024-01-06T07:38:18;6.77;;;2.27;;
18172;SDS011;9211;48.818;9.312;2024-01-06T07:40:45;5.50;;;2.05;;
18172;SDS011;9211;48.818;9.312;2024-01-06T07:43:12;7.45;;;2.10;;
18172;SDS011;9211;48.818;9.312;2024-01-06T07:45:40;6.38;;;2.58;;
18172;SDS011;9211;48.818;9.312;2024-01-06T07:48:07;9.05;;;3.50;;
18172;SDS011;9211;48.818;9.312;2024-01-06T07:50:36;9.90;;;3.58;;
18172;SDS011;9211;48.818;9.312;2024-01-06T07:53:03;6.47;;;2.43;;
18172;SDS011;9211;48.818;9.312;2024-01-06T07:55:30;7.63;;;2.45;;
18172;SDS011;9211;48.818;9.312;2024-01-06T07:57:57;6.30;;;2.60;;
18172;SDS011;9211;48.818;9.312;2024-01-06T08:00:24;7.40;;;3.00;;
18172;SDS011;9211;48.818;9.312;2024-01-06T08:02:51;7.95;;;3.10;;
18172;SDS011;9211;48.818;9.312;2024-01-06T08:05:18;6.55;;;2.33;;
18172;SDS011;9211;48.818;9.312;2024-01-06T08:07:47;4.63;;;2.35;;
18172;SDS011;9211;48.818;9.312;2024-01-06T08:10:14;7.05;;;2.70;;
18172;SDS011;9211;48.818;9.312;2024-01-06T08:12:41;7.70;;;2.45;;
18172;SDS011;9211;48.818;9.312;2024-01-06T08:15:09;8.30;;;2.75;;
18172;SDS011;9211;48.818;9.312;2024-01-06T08:17:36;7.55;;;2.83;;
18172;SDS011;9211;48.818;9.312;2024-01-06T08:20:06;8.02;;;3.10;;
18172;SDS011;9211;48.818;9.312;2024-01-06T08:22:33;10.52;;;3.20;;
18172;SDS011;9211;48.818;9.312;2024-01-06T08:25:02;7.95;;;2.60;;
18172;SDS011;9211;48.818;9.312;2024-01-06T08:27:31;6.40;;;2.53;;
18172;SDS011;9211;48.818;9.312;2024-01-06T08:29:58;8.48;;;2.80;;
18172;SDS011;9211;48.818;9.312;2024-01-06T08:32:25;10.05;;;3.15;;
18172;SDS011;9211;48.818;9.312;2024-01-06T08:34:52;9.02;;;3.10;;
18172;SDS011;9211;48.818;9.312;2024-01-06T08:37:19;6.82;;;3.03;;
18172;SDS011;9211;48.818;9.312;2024-01-06T08:39:46;7.13;;;2.40;;
18172;SDS011;9211;48.818;9.312;2024-01-06T08:42:15;6.47;;;2.35;;
18172;SDS011;9211;48.818;9.312;2024-01-06T08:44:42;6.20;;;2.45;;
18172;SDS011;9211;48.818;9.312;2024-01-06T08:47:09;6.57;;;2.58;;
18172;SDS011;9211;48.818;9.312;2024-01-06T08:49:37;7.10;;;2.70;;
18172;SDS011;9211;48.818;9.312;2024-01-06T08:52:04;6.57;;;2.70;;
18172;SDS011;9211;48.818;9.312;2024-01-06T08:54:31;7.47;;;2.78;;
18172;SDS011;9211;48.818;9.312;2024-01-06T08:56:58;7.93;;;3.20;;
18172;SDS011;9211;48.818;9.312;2024-01-06T08:59:27;8.30;;;3.38;;
18172;SDS011;9211;48.818;9.312;2024-01-06T09:01:54;8.13;;;3.47;;
18172;SDS011;9211;48.818;9.312;2024-01-06T09:04:22;6.22;;;2.70;;
18172;SDS011;9211;48.818;9.312;2024-01-06T09:06:49;9.27;;;2.92;;
18172;SDS011;9211;48.818;9.312;2024-01-06T09:09:16;7.45;;;2.70;;
18172;SDS011;9211;48.818;9.312;2024-01-06T09:11:43;5.13;;;2.60;;
18172;SDS011;9211;48.818;9.312;2024-01-06T09:14:11;6.35;;;2.58;;
18172;SDS011;9211;48.818;9.312;2024-01-06T09:16:39;4.88;;;2.28;;
18172;SDS011;9211;48.818;9.312;2024-01-06T09:19:06;5.50;;;2.30;;
18172;SDS011;9211;48.818;9.312;2024-01-06T09:21:34;4.85;;;2.40;;
18172;SDS011;9211;48.818;9.312;2024-01-06T09:24:01;6.20;;;2.60;;
18172;SDS011;9211;48.818;9.312;2024-01-06T09:26:31;5.10;;;2.40;;
18172;SDS011;9211;48.818;9.312;2024-01-06T09:28:59;5.60;;;2.63;;
18172;SDS011;9211;48.818;9.312;2024-01-06T09:31:26;4.55;;;2.60;;
18172;SDS011;9211;48.818;9.312;2024-01-06T09:33:54;4.50;;;2.40;;
18172;SDS011;9211;48.818;9.312;2024-01-06T09:36:21;6.65;;;2.47;;
18172;SDS011;9211;48.818;9.312;2024-01-06T09:38:48;5.72;;;2.30;;
18172;SDS011;9211;48.818;9.312;2024-01-06T09:41:15;6.05;;;2.92;;
18172;SDS011;9211;48.818;9.312;2024-01-06T09:43:42;5.13;;;2.55;;
18172;SDS011;9211;48.818;9.312;2024-01-06T09:46:10;3.55;;;2.17;;
18172;SDS011;9211;48.818;9.312;2024-01-06T09:48:41;6.70;;;3.25;;
18172;SDS011;9211;48.818;9.312;2024-01-06T09:51:11;4.20;;;2.42;;
18172;SDS011;9211;48.818;9.312;2024-01-06T09:53:40;5.25;;;3.08;;
18172;SDS011;9211;48.818;9.312;2024-01-06T09:56:14;8.13;;;4.03;;
18172;SDS011;9211;48.818;9.312;2024-01-06T09:58:42;5.73;;;2.93;;
18172;SDS011;9211;48.818;9.312;2024-01-06T10:01:10;4.18;;;2.50;;
18172;SDS011;9211;48.818;9.312;2024-01-06T10:03:39;5.85;;;2.85;;
18172;SDS011;9211;48.818;9.312;2024-01-06T10:06:06;7.10;;;3.90;;
18172;SDS011;9211;48.818;9.312;2024-01-06T10:08:36;5.10;;;2.55;;
18172;SDS011;9211;48.818;9.312;2024-01-06T10:11:05;6.45;;;3.10;;
18172;SDS011;9211;48.818;9.312;2024-01-06T10:13:33;4.97;;;2.70;;
18172;SDS011;9211;48.818;9.312;2024-01-06T10:16:00;4.97;;;2.10;;
18172;SDS011;9211;48.818;9.312;2024-01-06T10:18:27;2.70;;;1.80;;
18172;SDS011;9211;48.818;9.312;2024-01-06T10:20:55;3.22;;;1.52;;
18172;SDS011;9211;48.818;9.312;2024-01-06T10:23:22;3.58;;;1.52;;
18172;SDS011;9211;48.818;9.312;2024-01-06T10:25:52;2.00;;;1.50;;
18172;SDS011;9211;48.818;9.312;2024-01-06T10:28:20;5.03;;;2.58;;
18172;SDS011;9211;48.818;9.312;2024-01-06T10:30:51;3.58;;;2.00;;
18172;SDS011;9211;48.818;9.312;2024-01-06T10:33:19;4.65;;;2.40;;
18172;SDS011;9211;48.818;9.312;2024-01-06T10:35:46;3.47;;;2.00;;
18172;SDS011;9211;48.818;9.312;2024-01-06T10:38:13;3.10;;;1.95;;
18172;SDS011;9211;48.818;9.312;2024-01-06T10:40:48;3.50;;;2.30;;
18172;SDS011;9211;48.818;9.312;2024-01-06T10:43:24;4.03;;;2.30;;
18172;SDS011;9211;48.818;9.312;2024-01-06T10:45:53;3.53;;;2.20;;
18172;SDS011;9211;48.818;9.312;2024-01-06T10:48:24;5.13;;;2.42;;
18172;SDS011;9211;48.818;9.312;2024-01-06T10:50:51;5.57;;;3.33;;
18172;SDS011;9211;48.818;9.312;2024-01-06T10:53:20;5.25;;;2.83;;
18172;SDS011;9211;48.818;9.312;2024-01-06T10:55:49;5.40;;;3.20;;
18172;SDS011;9211;48.818;9.312;2024-01-06T10:58:18;4.93;;;3.15;;
18172;SDS011;9211;48.818;9.312;2024-01-06T11:00:45;4.63;;;3.00;;
18172;SDS011;9211;48.818;9.312;2024-01-06T11:03:13;4.90;;;2.92;;
18172;SDS011;9211;48.818;9.312;2024-01-06T11:05:40;5.13;;;3.10;;
18172;SDS011;9211;48.818;9.312;2024-01-06T11:08:08;5.95;;;3.95;;
18172;SDS011;9211;48.818;9.312;2024-01-06T11:10:35;5.65;;;4.03;;
18172;SDS011;9211;48.818;9.312;2024-01-06T11:13:08;7.22;;;3.95;;
18172;SDS011;9211;48.818;9.312;2024-01-06T11:15:40;5.40;;;3.10;;
18172;SDS011;9211;48.818;9.312;2024-01-06T11:18:08;4.07;;;2.97;;
18172;SDS011;9211;48.818;9.312;2024-01-06T11:20:35;8.30;;;5.20;;
18172;SDS011;9211;48.818;9.312;2024-01-06T11:23:18;6.93;;;3.78;;
18172;SDS011;9211;48.818;9.312;2024-01-06T11:25:46;8.07;;;5.07;;
18172;SDS011;9211;48.818;9.312;2024-01-06T11:28:13;6.60;;;3.70;;
18172;SDS011;9211;48.818;9.312;2024-01-06T11:30:44;5.57;;;3.35;;
18172;SDS011;9211;48.818;9.312;2024-01-06T11:33:11;5.28;;;3.20;;
18172;SDS011;9211;48.818;9.312;2024-01-06T11:35:39;5.95;;;3.80;;
18172;SDS011;9211;48.818;9.312;2024-01-06T11:38:06;5.30;;;3.70;;
18172;SDS011;9211;48.818;9.312;2024-01-06T11:40:34;5.70;;;4.00;;
18172;SDS011;9211;48.818;9.312;2024-01-06T11:43:03;5.38;;;3.35;;
18172;SDS011;9211;48.818;9.312;2024-01-06T11:45:31;4.78;;;3.30;;
18172;SDS011;9211;48.818;9.312;2024-01-06T11:48:00;4.43;;;3.00;;
18172;SDS011;9211;48.818;9.312;2024-01-06T11:50:29;7.80;;;4.13;;
18172;SDS011;9211;48.818;9.312;2024-01-06T11:52:57;6.38;;;3.75;;
18172;SDS011;9211;48.818;9.312;2024-01-06T11:55:25;6.75;;;4.60;;
18172;SDS011;9211;48.818;9.312;2024-01-06T11:57:54;6.80;;;3.28;;
18172;SDS011;9211;48.818;9.312;2024-01-06T12:00:22;8.45;;;5.30;;
18172;SDS011;9211;48.818;9.312;2024-01-06T12:02:49;10.85;;;6.38;;
18172;SDS011;9211;48.818;9.312;2024-01-06T12:05:23;8.60;;;5.22;;
18172;SDS011;9211;48.818;9.312;2024-01-06T12:07:54;9.23;;;5.80;;
18172;SDS011;9211;48.818;9.312;2024-01-06T12:10:23;7.20;;;5.00;;
18172;SDS011;9211;48.818;9.312;2024-01-06T12:12:58;7.10;;;4.50;;
18172;SDS011;9211;48.818;9.312;2024-01-06T12:15:28;8.18;;;4.70;;
18172;SDS011;9211;48.818;9.312;2024-01-06T12:17:56;6.03;;;4.03;;
18172;SDS011;9211;48.818;9.312;2024-01-06T12:20:25;5.80;;;4.18;;
18172;SDS011;9211;48.818;9.312;2024-01-06T12:22:54;5.70;;;3.70;;
18172;SDS011;9211;48.818;9.312;2024-01-06T12:25:21;6.73;;;4.20;;
18172;SDS011;9211;48.818;9.312;2024-01-06T12:27:50;5.88;;;4.07;;
18172;SDS011;9211;48.818;9.312;2024-01-06T12:30:19;5.82;;;4.15;;
18172;SDS011;9211;48.818;9.312;2024-01-06T12:32:48;6.75;;;4.40;;
18172;SDS011;9211;48.818;9.312;2024-01-06T12:35:17;9.00;;;4.57;;
18172;SDS011;9211;48.818;9.312;2024-01-06T12:37:45;8.07;;;4.78;;
18172;SDS011;9211;48.818;9.312;2024-01-06T12:40:13;7.95;;;5.70;;
18172;SDS011;9211;48.818;9.312;2024-01-06T12:42:42;8.95;;;5.80;;
18172;SDS011;9211;48.818;9.312;2024-01-06T12:45:09;7.90;;;5.35;;
18172;SDS011;9211;48.818;9.312;2024-01-06T12:47:37;6.55;;;4.70;;
18172;SDS011;9211;48.818;9.312;2024-01-06T12:50:05;8.70;;;4.60;;
18172;SDS011;9211;48.818;9.312;2024-01-06T12:52:33;7.15;;;4.47;;
18172;SDS011;9211;48.818;9.312;2024-01-06T12:55:02;6.88;;;4.72;;
18172;SDS011;9211;48.818;9.312;2024-01-06T12:57:30;8.47;;;5.03;;
18172;SDS011;9211;48.818;9.312;2024-01-06T12:59:57;7.47;;;4.85;;
18172;SDS011;9211;48.818;9.312;2024-01-06T13:02:24;7.80;;;4.93;;
18172;SDS011;9211;48.818;9.312;2024-01-06T13:04:51;8.18;;;5.10;;
18172;SDS011;9211;48.818;9.312;2024-01-06T13:07:18;17.25;;;9.98;;
18172;SDS011;9211;48.818;9.312;2024-01-06T13:09:45;12.93;;;8.50;;
18172;SDS011;9211;48.818;9.312;2024-01-06T13:12:13;9.20;;;6.40;;
18172;SDS011;9211;48.818;9.312;2024-01-06T13:14:40;8.05;;;5.05;;
18172;SDS011;9211;48.818;9.312;2024-01-06T13:17:09;8.07;;;5.72;;
18172;SDS011;9211;48.818;9.312;2024-01-06T13:19:38;7.10;;;5.45;;
18172;SDS011;9211;48.818;9.312;2024-01-06T13:22:05;7.97;;;5.22;;
18172;SDS011;9211;48.818;9.312;2024-01-06T13:24:32;8.10;;;5.07;;
18172;SDS011;9211;48.818;9.312;2024-01-06T13:26:59;7.70;;;4.87;;
18172;SDS011;9211;48.818;9.312;2024-01-06T13:29:29;7.88;;;5.03;;
18172;SDS011;9211;48.818;9.312;2024-01-06T13:31:56;8.43;;;5.60;;
18172;SDS011;9211;48.818;9.312;2024-01-06T13:34:24;8.50;;;5.82;;
18172;SDS011;9211;48.818;9.312;2024-01-06T13:36:51;8.15;;;5.60;;
18172;SDS011;9211;48.818;9.312;2024-01-06T13:39:18;9.55;;;5.47;;
18172;SDS011;9211;48.818;9.312;2024-01-06T13:41:46;8.07;;;5.78;;
18172;SDS011;9211;48.818;9.312;2024-01-06T13:44:13;12.30;;;6.63;;
18172;SDS011;9211;48.818;9.312;2024-01-06T13:46:42;10.85;;;6.93;;
18172;SDS011;9211;48.818;9.312;2024-01-06T13:49:10;9.63;;;6.65;;
18172;SDS011;9211;48.818;9.312;2024-01-06T13:51:37;11.00;;;7.07;;
18172;SDS011;9211;48.818;9.312;2024-01-06T13:54:04;10.15;;;6.38;;
18172;SDS011;9211;48.818;9.312;2024-01-06T13:56:31;9.30;;;6.32;;
18172;SDS011;9211;48.818;9.312;2024-01-06T13:58:58;9.40;;;6.53;;
18172;SDS011;9211;48.818;9.312;2024-01-06T14:01:25;11.65;;;6.80;;
18172;SDS011;9211;48.818;9.312;2024-01-06T14:03:53;11.35;;;6.72;;
18172;SDS011;9211;48.818;9.312;2024-01-06T14:06:23;10.50;;;6.60;;
18172;SDS011;9211;48.818;9.312;2024-01-06T14:08:50;9.45;;;5.88;;
18172;SDS011;9211;48.818;9.312;2024-01-06T14:11:18;7.88;;;6.22;;
18172;SDS011;9211;48.818;9.312;2024-01-06T14:13:45;10.32;;;6.85;;
18172;SDS011;9211;48.818;9.312;2024-01-06T14:16:13;9.13;;;6.20;;
18172;SDS011;9211;48.818;9.312;2024-01-06T14:18:40;10.03;;;6.43;;
18172;SDS011;9211;48.818;9.312;2024-01-06T14:21:10;9.70;;;6.30;;
18172;SDS011;9211;48.818;9.312;2024-01-06T14:23:39;9.15;;;6.45;;
18172;SDS011;9211;48.818;9.312;2024-01-06T14:26:06;11.23;;;7.28;;
18172;SDS011;9211;48.818;9.312;2024-01-06T14:28:33;11.18;;;7.18;;
18172;SDS011;9211;48.818;9.312;2024-01-06T14:31:01;10.40;;;7.03;;
18172;SDS011;9211;48.818;9.312;2024-01-06T14:33:30;11.13;;;7.07;;
18172;SDS011;9211;48.818;9.312;2024-01-06T14:36:00;11.98;;;7.20;;
18172;SDS011;9211;48.818;9.312;2024-01-06T14:38:28;10.52;;;6.97;;
18172;SDS011;9211;48.818;9.312;2024-01-06T14:40:55;10.33;;;6.90;;
18172;SDS011;9211;48.818;9.312;2024-01-06T14:43:22;10.48;;;6.68;;
18172;SDS011;9211;48.818;9.312;2024-01-06T14:45:49;9.80;;;6.82;;
18172;SDS011;9211;48.818;9.312;2024-01-06T14:48:16;10.82;;;7.20;;
18172;SDS011;9211;48.818;9.312;2024-01-06T14:50:43;9.95;;;6.97;;
18172;SDS011;9211;48.818;9.312;2024-01-06T14:53:10;11.55;;;7.10;;
18172;SDS011;9211;48.818;9.312;2024-01-06T14:55:38;10.13;;;6.90;;
18172;SDS011;9211;48.818;9.312;2024-01-06T14:58:05;9.93;;;6.87;;
18172;SDS011;9211;48.818;9.312;2024-01-06T15:00:33;10.70;;;6.70;;
18172;SDS011;9211;48.818;9.312;2024-01-06T15:03:01;10.20;;;7.47;;
18172;SDS011;9211;48.818;9.312;2024-01-06T15:05:28;11.70;;;7.77;;